KLPC/LPC METAR and TAF weather

Enter ICAO airport designator
Station Type Date Time Source
KLPC METAR 2020/07/14 16:56 UTC NOAA

KLPC 141656Z AUTO 34004KT 10SM 15/12 A3002 RMK AO2 SLP166 T01500117 $


Station Type Date Time Source
KLPC Decoded METAR 2020/07/14 16:56 UTC NOAA

Lompoc, Lompoc Airport, CA, United States (KLPC) 34-40N 120-28W
Jul 14, 2020 - 12:56 PM EDT / 2020.07.14 1656 UTC
Wind: from the NNW (340 degrees) at 5 MPH (4 KT):0
Visibility: 10 mile(s):0
Temperature: 59.0 F (15.0 C)
Dew Point: 53.1 F (11.7 C)
Relative Humidity: 80%
Pressure (altimeter): 30.02 in. Hg (1016 hPa)
ob: KLPC 141656Z AUTO 34004KT 10SM 15/12 A3002 RMK AO2 SLP166 T01500117
cycle: 17

Station Type Date Time Source
KLPC TAF UTC NOAA

Error!

Example: see airport list